Time;durP1;ratioP1;P1;durP2;ratioP2;P2;SDS_P1;SDS_P2;PMS_P1;PMS_P2;Temp;Humidity;BMP_temperature;BMP_pressure;BME280_temperature;BME280_humidity;BME280_pressure;Samples;Min_cycle;Max_cycle;Signal;HPM_P1;HPM_P2
2021/01/18 00:02:27;;;;;;;;;;;19.40;56.00;;;;;;5072494;28;1384;-66
2021/01/18 00:04:53;;;;;;;;;;;19.30;55.90;;;;;;5072641;28;1957;-66
2021/01/18 00:07:18;;;;;;;;;;;19.30;55.90;;;;;;5072585;28;1376;-66
2021/01/18 00:09:44;;;;;;;;;;;19.30;55.90;;;;;;5072616;28;1752;-65
2021/01/18 00:12:09;;;;;;;;;;;19.30;56.00;;;;;;5072739;28;1384;-65
2021/01/18 00:14:35;;;;;;;;;;;19.40;56.00;;;;;;5072441;28;1394;-65
2021/01/18 00:17:04;;;;;;;;;;;19.30;56.00;;;;;;5072335;28;1629;-66
2021/01/18 00:19:29;;;;;;;;;;;19.30;56.00;;;;;;5072545;28;1716;-65
2021/01/18 00:21:55;;;;;;;;;;;19.30;56.00;;;;;;5072527;28;1671;-65
2021/01/18 00:24:20;;;;;;;;;;;19.30;56.60;;;;;;5075047;28;1898;-66
2021/01/18 00:26:46;;;;;;;;;;;19.30;56.00;;;;;;5076183;28;1449;-65
2021/01/18 00:29:12;;;;;;;;;;;19.30;56.00;;;;;;5074723;28;1655;-65
2021/01/18 00:31:41;;;;;;;;;;;19.30;56.00;;;;;;5075999;28;1472;-66
2021/01/18 00:34:06;;;;;;;;;;;19.30;56.00;;;;;;5076062;28;1715;-66
2021/01/18 00:36:32;;;;;;;;;;;19.30;56.10;;;;;;5076162;28;1295;-65
2021/01/18 00:38:57;;;;;;;;;;;19.30;56.10;;;;;;5076017;28;1457;-66
2021/01/18 00:41:23;;;;;;;;;;;19.30;56.10;;;;;;5075937;28;1730;-66
2021/01/18 00:43:48;;;;;;;;;;;19.30;56.10;;;;;;5075659;28;1969;-65
2021/01/18 00:46:14;;;;;;;;;;;19.30;56.10;;;;;;5075632;28;1378;-66
2021/01/18 00:48:39;;;;;;;;;;;19.30;56.10;;;;;;5075911;28;1731;-65
2021/01/18 00:51:05;;;;;;;;;;;19.30;56.10;;;;;;5075684;28;1636;-65
2021/01/18 00:53:30;;;;;;;;;;;19.30;56.10;;;;;;5075692;28;1377;-66
2021/01/18 00:55:55;;;;;;;;;;;19.30;56.10;;;;;;5075454;28;1690;-65
2021/01/18 00:58:21;;;;;;;;;;;19.20;56.10;;;;;;5075656;28;1535;-66
2021/01/18 01:00:46;;;;;;;;;;;19.30;56.10;;;;;;5095701;28;1496;-65
2021/01/18 01:03:12;;;;;;;;;;;19.20;56.10;;;;;;5095853;28;1965;-65
2021/01/18 01:05:37;;;;;;;;;;;19.30;56.10;;;;;;5095472;28;1400;-65
2021/01/18 01:08:03;;;;;;;;;;;19.20;56.10;;;;;;5095581;28;1757;-65
2021/01/18 01:10:32;;;;;;;;;;;19.20;56.10;;;;;;5095690;28;1754;-66
2021/01/18 01:13:02;;;;;;;;;;;19.20;56.10;;;;;;5090918;28;1379;-66
2021/01/18 01:15:28;;;;;;;;;;;19.20;56.10;;;;;;5074995;28;1375;-65
2021/01/18 01:17:53;;;;;;;;;;;19.20;56.10;;;;;;5075234;28;1643;-66
2021/01/18 01:20:19;;;;;;;;;;;19.20;56.10;;;;;;5075257;28;1377;-67
2021/01/18 01:22:45;;;;;;;;;;;19.20;56.10;;;;;;5075117;28;1501;-66
2021/01/18 01:25:11;;;;;;;;;;;19.20;56.20;;;;;;5073922;28;1894;-66
2021/01/18 01:27:37;;;;;;;;;;;19.20;56.20;;;;;;5075000;28;1291;-66
2021/01/18 01:30:05;;;;;;;;;;;19.20;56.20;;;;;;5075031;28;1203;-65
2021/01/18 01:32:31;;;;;;;;;;;19.20;56.20;;;;;;5075013;28;1388;-65
2021/01/18 01:34:56;;;;;;;;;;;19.20;56.20;;;;;;5074503;28;1382;-65
2021/01/18 01:37:22;;;;;;;;;;;19.20;56.20;;;;;;5074709;28;1334;-65
2021/01/18 01:39:47;;;;;;;;;;;19.20;56.20;;;;;;5074620;28;1338;-65
2021/01/18 01:42:22;;;;;;;;;;;19.20;56.20;;;;;;5073519;28;1600;-65
2021/01/18 01:44:48;;;;;;;;;;;19.20;56.20;;;;;;5074800;28;1906;-65
2021/01/18 01:47:19;;;;;;;;;;;19.20;56.20;;;;;;5073263;28;1334;-65
2021/01/18 01:49:45;;;;;;;;;;;19.20;56.20;;;;;;5074693;28;1265;-65
2021/01/18 01:52:10;;;;;;;;;;;19.20;56.20;;;;;;5074281;28;1319;-65
2021/01/18 01:54:36;;;;;;;;;;;19.20;56.20;;;;;;5073145;28;1315;-66
2021/01/18 01:57:01;;;;;;;;;;;19.20;56.20;;;;;;5074046;28;1272;-65
2021/01/18 01:59:27;;;;;;;;;;;19.20;56.30;;;;;;5073216;28;1381;-65
2021/01/18 02:01:53;;;;;;;;;;;19.20;56.30;;;;;;5073115;28;1343;-65
2021/01/18 02:04:18;;;;;;;;;;;19.10;56.20;;;;;;5072880;28;1965;-64
2021/01/18 02:06:44;;;;;;;;;;;19.20;56.20;;;;;;5072926;28;1315;-65
2021/01/18 02:09:09;;;;;;;;;;;19.10;56.20;;;;;;5072794;28;1324;-65
2021/01/18 02:11:35;;;;;;;;;;;19.20;56.30;;;;;;5072664;28;1346;-66
2021/01/18 02:14:06;;;;;;;;;;;19.10;56.20;;;;;;5073892;28;1190;-65
2021/01/18 02:16:50;;;;;;;;;;;19.10;56.30;;;;;;5055851;28;1332;-65
2021/01/18 02:19:16;;;;;;;;;;;19.10;56.20;;;;;;5073943;28;1441;-65
2021/01/18 02:22:05;;;;;;;;;;;19.10;56.30;;;;;;5073899;28;1338;-65
2021/01/18 02:24:49;;;;;;;;;;;19.10;56.30;;;;;;5072401;28;1966;-65
2021/01/18 02:27:33;;;;;;;;;;;19.10;56.30;;;;;;5073796;28;1440;-66
2021/01/18 02:30:05;;;;;;;;;;;19.10;56.30;;;;;;5073442;28;1359;-65
2021/01/18 02:32:49;;;;;;;;;;;19.10;56.30;;;;;;5073436;28;1381;-65
2021/01/18 02:35:33;;;;;;;;;;;19.10;56.30;;;;;;5073412;28;1314;-65
2021/01/18 02:38:25;;;;;;;;;;;19.10;56.30;;;;;;5073422;28;1398;-65
2021/01/18 02:40:59;;;;;;;;;;;19.10;56.30;;;;;;5031487;28;1368;-65
2021/01/18 02:43:26;;;;;;;;;;;19.10;56.30;;;;;;5073325;28;1906;-66
2021/01/18 02:45:51;;;;;;;;;;;19.10;56.20;;;;;;5071579;28;1326;-65
2021/01/18 02:48:17;;;;;;;;;;;19.20;56.20;;;;;;5073392;28;1258;-65
2021/01/18 02:50:42;;;;;;;;;;;19.20;56.20;;;;;;5072136;28;1391;-65
2021/01/18 02:53:08;;;;;;;;;;;19.10;56.20;;;;;;5073289;28;1307;-65
2021/01/18 02:55:34;;;;;;;;;;;19.20;56.20;;;;;;5073223;28;1350;-65
2021/01/18 02:58:01;;;;;;;;;;;19.20;56.10;;;;;;5055204;28;1368;-65
2021/01/18 03:00:32;;;;;;;;;;;19.20;56.10;;;;;;5073305;28;1355;-65
2021/01/18 03:03:20;;;;;;;;;;;19.20;56.10;;;;;;5055301;28;1375;-65
2021/01/18 03:06:15;;;;;;;;;;;19.20;56.00;;;;;;5071659;28;1373;-65
2021/01/18 03:08:41;;;;;;;;;;;19.20;56.00;;;;;;4998653;28;1442;-65
2021/01/18 03:11:14;;;;;;;;;;;19.20;55.90;;;;;;5047035;28;1337;-65
2021/01/18 03:13:46;;;;;;;;;;;19.20;55.90;;;;;;5065481;28;1382;-65
2021/01/18 03:16:18;;;;;;;;;;;19.30;55.90;;;;;;5033620;28;1582;-65
2021/01/18 03:18:44;;;;;;;;;;;19.30;55.90;;;;;;5058563;28;1317;-65
2021/01/18 03:21:10;;;;;;;;;;;19.30;55.80;;;;;;5071725;28;1403;-65
2021/01/18 03:23:39;;;;;;;;;;;19.30;55.80;;;;;;5074726;28;1898;-65
2021/01/18 03:26:04;;;;;;;;;;;19.30;55.80;;;;;;5072799;28;1243;-66
2021/01/18 03:28:30;;;;;;;;;;;19.30;55.80;;;;;;5072998;28;1346;-65
2021/01/18 03:30:55;;;;;;;;;;;19.30;55.80;;;;;;5072752;28;1366;-66
2021/01/18 03:33:24;;;;;;;;;;;19.30;55.80;;;;;;5072917;28;1234;-67
2021/01/18 03:35:50;;;;;;;;;;;19.30;55.70;;;;;;5072552;28;1350;-66
2021/01/18 03:38:16;;;;;;;;;;;19.30;55.70;;;;;;5072778;28;1370;-66
2021/01/18 03:40:41;;;;;;;;;;;19.30;55.70;;;;;;5072652;28;1281;-66
2021/01/18 03:43:07;;;;;;;;;;;19.30;55.70;;;;;;5072739;28;1399;-66
2021/01/18 03:45:37;;;;;;;;;;;19.30;55.70;;;;;;5071444;28;1977;-66
2021/01/18 03:48:06;;;;;;;;;;;19.30;55.70;;;;;;5072546;28;1364;-66
2021/01/18 03:50:31;;;;;;;;;;;19.30;55.70;;;;;;5072910;28;1330;-66
2021/01/18 03:52:56;;;;;;;;;;;19.30;55.70;;;;;;5072824;28;1666;-65
2021/01/18 03:55:22;;;;;;;;;;;19.30;55.70;;;;;;5072705;28;1393;-66
2021/01/18 03:57:49;;;;;;;;;;;19.30;55.70;;;;;;5054583;28;1216;-66
2021/01/18 04:00:14;;;;;;;;;;;19.30;55.70;;;;;;5076468;28;1346;-66
2021/01/18 04:02:40;;;;;;;;;;;19.30;55.70;;;;;;5075345;28;1323;-66
2021/01/18 04:05:06;;;;;;;;;;;19.30;55.60;;;;;;5076308;28;1910;-66
2021/01/18 04:07:31;;;;;;;;;;;19.30;55.60;;;;;;5076421;28;1400;-66
2021/01/18 04:09:57;;;;;;;;;;;19.40;55.60;;;;;;5076394;28;1141;-66
2021/01/18 04:12:22;;;;;;;;;;;19.40;55.50;;;;;;5075154;28;1354;-66
2021/01/18 04:14:49;;;;;;;;;;;19.40;55.50;;;;;;5076107;28;1284;-66
2021/01/18 04:17:15;;;;;;;;;;;19.40;55.50;;;;;;5076283;28;1283;-66
2021/01/18 04:19:41;;;;;;;;;;;19.40;55.40;;;;;;5076124;28;1285;-66
2021/01/18 04:22:06;;;;;;;;;;;19.50;55.40;;;;;;5076251;28;1385;-66
2021/01/18 04:24:35;;;;;;;;;;;19.50;55.40;;;;;;5075886;28;1906;-66
2021/01/18 04:27:00;;;;;;;;;;;19.50;55.30;;;;;;5075831;28;1319;-66
2021/01/18 04:29:26;;;;;;;;;;;19.50;55.30;;;;;;5075748;28;1369;-66
2021/01/18 04:31:51;;;;;;;;;;;19.50;55.30;;;;;;5084437;28;831;-66
2021/01/18 04:34:17;;;;;;;;;;;19.50;55.30;;;;;;5096002;28;1369;-66
2021/01/18 04:36:42;;;;;;;;;;;19.50;55.30;;;;;;5096150;28;1087;-66
2021/01/18 04:39:08;;;;;;;;;;;19.50;55.30;;;;;;5078302;28;1700;-66
2021/01/18 04:41:39;;;;;;;;;;;19.50;55.30;;;;;;5096006;28;1083;-66
2021/01/18 04:44:08;;;;;;;;;;;19.50;55.30;;;;;;5095722;28;1910;-66
2021/01/18 04:46:38;;;;;;;;;;;19.50;55.40;;;;;;5095898;28;1310;-66
2021/01/18 04:49:03;;;;;;;;;;;19.50;55.30;;;;;;5095835;28;1425;-66
2021/01/18 04:51:29;;;;;;;;;;;19.50;55.40;;;;;;5067981;28;1209;-66
2021/01/18 04:53:54;;;;;;;;;;;19.50;55.40;;;;;;5075415;28;1346;-66
2021/01/18 04:56:23;;;;;;;;;;;19.40;55.30;;;;;;5075232;28;1313;-66
2021/01/18 04:58:49;;;;;;;;;;;19.50;55.40;;;;;;5075387;28;1313;-65
2021/01/18 05:01:14;;;;;;;;;;;19.50;55.40;;;;;;5074342;28;1482;-66
2021/01/18 05:03:40;;;;;;;;;;;19.50;55.40;;;;;;5075220;28;1906;-66
2021/01/18 05:06:12;;;;;;;;;;;19.40;55.30;;;;;;5074122;28;1331;-66
2021/01/18 05:08:56;;;;;;;;;;;19.50;55.40;;;;;;5074447;28;1274;-65
2021/01/18 05:11:22;;;;;;;;;;;19.50;55.40;;;;;;5075412;28;1398;-66
2021/01/18 05:13:47;;;;;;;;;;;19.50;55.40;;;;;;5075077;28;1147;-66
2021/01/18 05:16:13;;;;;;;;;;;19.50;55.40;;;;;;5075081;28;1335;-65
2021/01/18 05:18:38;;;;;;;;;;;19.50;55.40;;;;;;5075083;28;1359;-67
2021/01/18 05:21:07;;;;;;;;;;;19.40;55.40;;;;;;5075263;28;1421;-67
2021/01/18 05:23:39;;;;;;;;;;;19.40;55.30;;;;;;5074123;28;1902;-67
2021/01/18 05:26:18;;;;;;;;;;;19.40;55.30;;;;;;5074220;28;1421;-67
2021/01/18 05:28:44;;;;;;;;;;;19.50;55.40;;;;;;5075238;28;1415;-67
2021/01/18 05:31:10;;;;;;;;;;;19.40;55.30;;;;;;5075331;28;1401;-67
2021/01/18 05:33:37;;;;;;;;;;;19.50;55.40;;;;;;5074875;28;1402;-67
2021/01/18 05:36:03;;;;;;;;;;;19.40;55.30;;;;;;5073561;28;1390;-67
2021/01/18 05:38:28;;;;;;;;;;;19.40;55.40;;;;;;5074768;28;1285;-66
2021/01/18 05:40:53;;;;;;;;;;;19.40;55.30;;;;;;5073683;28;1380;-68
2021/01/18 05:43:19;;;;;;;;;;;19.40;55.40;;;;;;5074798;28;1969;-67
2021/01/18 05:45:45;;;;;;;;;;;19.40;55.40;;;;;;5074728;28;1364;-67
2021/01/18 05:48:11;;;;;;;;;;;19.50;55.40;;;;;;5073346;28;1677;-67
2021/01/18 05:50:37;;;;;;;;;;;19.50;55.40;;;;;;5074697;28;1178;-67
2021/01/18 05:53:22;;;;;;;;;;;19.40;55.40;;;;;;5074790;28;1331;-67
2021/01/18 05:55:48;;;;;;;;;;;19.40;55.40;;;;;;5074485;28;1198;-67
2021/01/18 05:58:13;;;;;;;;;;;19.40;55.40;;;;;;5074438;28;1268;-67
2021/01/18 06:00:42;;;;;;;;;;;19.40;55.40;;;;;;5056429;28;1366;-67
2021/01/18 06:03:10;;;;;;;;;;;19.40;55.40;;;;;;5074693;28;1394;-67
2021/01/18 06:05:36;;;;;;;;;;;19.50;55.40;;;;;;5073028;28;1894;-67
2021/01/18 06:08:15;;;;;;;;;;;19.40;55.40;;;;;;5074215;28;1340;-67
2021/01/18 06:10:41;;;;;;;;;;;19.40;55.40;;;;;;5073152;28;1330;-66
2021/01/18 06:13:18;;;;;;;;;;;19.40;55.40;;;;;;5074213;28;1036;-65
2021/01/18 06:15:44;;;;;;;;;;;19.40;55.40;;;;;;5074382;28;1366;-67
2021/01/18 06:18:14;;;;;;;;;;;19.40;55.40;;;;;;5073845;28;1745;-67
2021/01/18 06:20:39;;;;;;;;;;;19.40;55.40;;;;;;5072098;28;1186;-67
2021/01/18 06:23:05;;;;;;;;;;;19.40;55.40;;;;;;5073822;28;1374;-67
2021/01/18 06:25:34;;;;;;;;;;;19.40;55.40;;;;;;5073857;28;1894;-67
2021/01/18 06:28:00;;;;;;;;;;;19.40;55.40;;;;;;5072227;28;1425;-67
2021/01/18 06:30:29;;;;;;;;;;;19.40;55.40;;;;;;5074213;28;1349;-67
2021/01/18 06:32:55;;;;;;;;;;;19.40;55.40;;;;;;5072580;28;1350;-67
2021/01/18 06:35:21;;;;;;;;;;;19.40;55.40;;;;;;5073720;28;1401;-68
2021/01/18 06:37:47;;;;;;;;;;;19.40;55.40;;;;;;5073510;28;1367;-67
2021/01/18 06:40:12;;;;;;;;;;;19.40;55.40;;;;;;5072537;28;1203;-65
2021/01/18 06:42:38;;;;;;;;;;;19.40;55.40;;;;;;5072224;28;1105;-66
2021/01/18 06:45:04;;;;;;;;;;;19.40;55.40;;;;;;5073305;28;1906;-67
2021/01/18 06:47:30;;;;;;;;;;;19.40;55.40;;;;;;5072119;28;1403;-66
2021/01/18 06:49:56;;;;;;;;;;;19.40;55.40;;;;;;5073500;28;1578;-66
2021/01/18 06:52:23;;;;;;;;;;;19.40;55.40;;;;;;5072261;28;1217;-67
2021/01/18 06:55:07;;;;;;;;;;;19.40;55.40;;;;;;5072032;28;1389;-67
2021/01/18 06:57:41;;;;;;;;;;;19.40;55.40;;;;;;5072294;28;1421;-67
2021/01/18 07:00:07;;;;;;;;;;;19.40;55.40;;;;;;5055738;28;1438;-66
2021/01/18 07:02:36;;;;;;;;;;;19.40;55.40;;;;;;5072372;28;1358;-67
2021/01/18 07:05:09;;;;;;;;;;;19.40;55.40;;;;;;5073831;28;1901;-66
2021/01/18 07:07:35;;;;;;;;;;;19.40;55.40;;;;;;5071958;28;1433;-67
2021/01/18 07:10:01;;;;;;;;;;;19.40;55.40;;;;;;5072008;28;1218;-67
2021/01/18 07:12:27;;;;;;;;;;;19.40;55.40;;;;;;5072195;28;1178;-67
2021/01/18 07:14:55;;;;;;;;;;;19.40;55.40;;;;;;5073067;28;1191;-66
2021/01/18 07:17:21;;;;;;;;;;;19.40;55.50;;;;;;5071972;28;1099;-67
2021/01/18 07:19:47;;;;;;;;;;;19.40;55.40;;;;;;5072105;28;1829;-66
2021/01/18 07:22:31;;;;;;;;;;;19.40;55.40;;;;;;5073193;28;1076;-66
2021/01/18 07:24:59;;;;;;;;;;;19.40;55.40;;;;;;5073396;28;1902;-66
2021/01/18 07:27:25;;;;;;;;;;;19.40;55.40;;;;;;5073573;28;1355;-67
2021/01/18 07:29:50;;;;;;;;;;;19.40;55.40;;;;;;5089893;22;3951;-66
2021/01/18 07:32:15;;;;;;;;;;;19.40;55.40;;;;;;5072202;28;1051;-66
2021/01/18 07:34:41;;;;;;;;;;;19.40;55.40;;;;;;5069794;28;1082;-66
2021/01/18 07:37:07;;;;;;;;;;;19.40;55.40;;;;;;5051578;28;1191;-66
2021/01/18 07:39:38;;;;;;;;;;;19.40;55.40;;;;;;5046206;28;1750;-66
2021/01/18 07:42:05;;;;;;;;;;;19.40;55.40;;;;;;5061022;28;1090;-66
2021/01/18 07:44:30;;;;;;;;;;;19.40;55.40;;;;;;5051410;28;1993;-65
2021/01/18 07:46:59;;;;;;;;;;;19.40;55.40;;;;;;5052805;28;1787;-65
2021/01/18 07:49:29;;;;;;;;;;;19.40;55.40;;;;;;5062541;28;1459;-65
2021/01/18 07:52:13;;;;;;;;;;;19.40;55.30;;;;;;5071814;28;1158;-65
2021/01/18 07:54:39;;;;;;;;;;;19.40;55.30;;;;;;5063159;28;1040;-66
2021/01/18 07:57:23;;;;;;;;;;;19.40;55.30;;;;;;5052637;28;1210;-67
2021/01/18 07:59:48;;;;;;;;;;;19.40;55.30;;;;;;5051332;28;1272;-66
2021/01/18 08:02:23;;;;;;;;;;;19.40;55.30;;;;;;5049427;28;1359;-64
2021/01/18 08:04:49;;;;;;;;;;;19.40;55.30;;;;;;5057888;28;1917;-65
2021/01/18 08:07:14;;;;;;;;;;;19.40;55.30;;;;;;5049344;28;1111;-64
2021/01/18 08:09:40;;;;;;;;;;;19.40;55.30;;;;;;5049290;28;1298;-67
2021/01/18 08:12:24;;;;;;;;;;;19.40;55.30;;;;;;5050289;28;1359;-68
2021/01/18 08:14:49;;;;;;;;;;;19.40;55.30;;;;;;5050514;28;1347;-67
2021/01/18 08:17:16;;;;;;;;;;;19.50;55.30;;;;;;5049345;28;1373;-67
2021/01/18 08:19:41;;;;;;;;;;;19.40;55.30;;;;;;5050587;28;1304;-67
2021/01/18 08:22:07;;;;;;;;;;;19.40;55.30;;;;;;5052240;28;1357;-67
2021/01/18 08:24:34;;;;;;;;;;;19.40;55.30;;;;;;5051959;28;1906;-67
2021/01/18 08:27:00;;;;;;;;;;;19.40;55.30;;;;;;5052112;28;1264;-67
2021/01/18 08:29:41;;;;;;;;;;;19.40;55.30;;;;;;5052217;28;1280;-67
2021/01/18 08:32:22;;;;;;;;;;;19.40;55.30;;;;;;5050994;28;1304;-67
2021/01/18 08:34:50;;;;;;;;;;;19.40;55.30;;;;;;5052001;28;1325;-67
2021/01/18 08:37:16;;;;;;;;;;;19.40;55.30;;;;;;5051944;28;1413;-68
2021/01/18 08:39:54;;;;;;;;;;;19.40;55.30;;;;;;5050895;28;1336;-67
2021/01/18 08:42:26;;;;;;;;;;;19.40;55.30;;;;;;5050973;28;1331;-67
2021/01/18 08:44:55;;;;;;;;;;;19.40;55.30;;;;;;5054062;28;1965;-67
2021/01/18 08:47:36;;;;;;;;;;;19.40;55.30;;;;;;5055456;28;1252;-67
2021/01/18 08:50:20;;;;;;;;;;;19.40;55.30;;;;;;5056285;28;1341;-67
2021/01/18 08:52:55;;;;;;;;;;;19.40;55.30;;;;;;5055660;28;1362;-67
2021/01/18 08:55:30;;;;;;;;;;;19.40;55.30;;;;;;5055519;28;1310;-67
2021/01/18 08:57:57;;;;;;;;;;;19.40;55.30;;;;;;5065319;28;1378;-67
2021/01/18 09:00:22;;;;;;;;;;;19.40;55.30;;;;;;5057433;28;1282;-67
2021/01/18 09:02:48;;;;;;;;;;;19.40;55.30;;;;;;5055543;28;1370;-67
2021/01/18 09:05:17;;;;;;;;;;;19.40;55.30;;;;;;5054203;28;1910;-68
2021/01/18 09:07:43;;;;;;;;;;;19.40;55.30;;;;;;5055956;28;1292;-67
2021/01/18 09:10:18;;;;;;;;;;;19.40;55.30;;;;;;5055429;28;1367;-68
2021/01/18 09:12:44;;;;;;;;;;;19.40;55.30;;;;;;5058112;28;1319;-68
2021/01/18 09:15:10;;;;;;;;;;;19.40;55.30;;;;;;5056395;28;1316;-68
2021/01/18 09:17:35;;;;;;;;;;;19.40;55.30;;;;;;5054201;28;1322;-68
2021/01/18 09:20:04;;;;;;;;;;;19.40;55.30;;;;;;5055532;28;1883;-67
2021/01/18 09:22:30;;;;;;;;;;;19.40;55.30;;;;;;5073653;28;2023;-66
2021/01/18 09:24:55;;;;;;;;;;;19.40;55.30;;;;;;5056507;28;1898;-67
2021/01/18 09:27:21;;;;;;;;;;;19.40;55.30;;;;;;5075584;28;1304;-67
2021/01/18 09:30:00;;;;;;;;;;;19.40;55.30;;;;;;5068956;28;1450;-67
2021/01/18 09:32:26;;;;;;;;;;;19.40;55.30;;;;;;5055226;28;1375;-67
2021/01/18 09:35:10;;;;;;;;;;;19.40;55.30;;;;;;5053790;28;1274;-67
2021/01/18 09:37:39;;;;;;;;;;;19.40;55.30;;;;;;5053401;28;1317;-67
2021/01/18 09:40:07;;;;;;;;;;;19.40;55.30;;;;;;5053548;28;1403;-67
2021/01/18 09:42:33;;;;;;;;;;;19.40;55.30;;;;;;5055020;28;1386;-67
2021/01/18 09:44:58;;;;;;;;;;;19.40;55.30;;;;;;5073131;28;1972;-67
2021/01/18 09:47:24;;;;;;;;;;;19.40;55.30;;;;;;5075077;28;1319;-67
2021/01/18 09:49:49;;;;;;;;;;;19.40;55.30;;;;;;5056972;28;1373;-67
2021/01/18 09:52:15;;;;;;;;;;;19.40;55.30;;;;;;5072233;28;1359;-68
2021/01/18 09:54:40;;;;;;;;;;;19.40;55.30;;;;;;5073380;28;1323;-68
2021/01/18 09:57:09;;;;;;;;;;;19.40;55.30;;;;;;5070574;28;1329;-67
2021/01/18 09:59:35;;;;;;;;;;;19.40;55.30;;;;;;5054333;28;1344;-67
2021/01/18 10:02:00;;;;;;;;;;;19.40;55.30;;;;;;5053005;28;1135;-67
2021/01/18 10:04:27;;;;;;;;;;;19.40;55.30;;;;;;5052823;28;1905;-68
2021/01/18 10:07:01;;;;;;;;;;;19.40;55.30;;;;;;5052734;28;1340;-67
2021/01/18 10:09:26;;;;;;;;;;;19.40;55.30;;;;;;5053066;28;1401;-68
2021/01/18 10:11:52;;;;;;;;;;;19.50;55.30;;;;;;5052917;28;1372;-68
2021/01/18 10:14:22;;;;;;;;;;;19.50;55.20;;;;;;5058187;28;1592;-67
2021/01/18 10:16:57;;;;;;;;;;;19.70;55.10;;;;;;5053657;28;1738;-68
2021/01/18 10:19:22;;;;;;;;;;;19.80;54.70;;;;;;5066058;28;1372;-69
2021/01/18 10:21:48;;;;;;;;;;;19.90;54.40;;;;;;5060420;28;1332;-70
2021/01/18 10:24:23;;;;;;;;;;;20.10;54.20;;;;;;5073869;28;1890;-68
2021/01/18 10:26:48;;;;;;;;;;;20.20;54.00;;;;;;5073973;28;1468;-68
2021/01/18 10:29:17;;;;;;;;;;;20.30;53.60;;;;;;5072511;28;1387;-67
2021/01/18 10:31:50;;;;;;;;;;;20.50;53.40;;;;;;5072404;28;1480;-68
2021/01/18 10:34:21;;;;;;;;;;;20.60;53.20;;;;;;5072337;28;1407;-68
2021/01/18 10:36:47;;;;;;;;;;;20.70;52.90;;;;;;5073766;28;1327;-68
2021/01/18 10:39:28;;;;;;;;;;;20.80;52.70;;;;;;5073605;28;1300;-68
2021/01/18 10:41:54;;;;;;;;;;;20.80;52.50;;;;;;5073675;28;1351;-68
2021/01/18 10:44:22;;;;;;;;;;;20.90;52.40;;;;;;5072231;28;1976;-68
2021/01/18 10:46:48;;;;;;;;;;;20.90;52.30;;;;;;5063498;28;858;-68
2021/01/18 10:49:14;;;;;;;;;;;20.90;52.20;;;;;;5053386;28;1333;-68
2021/01/18 10:51:39;;;;;;;;;;;21.00;52.20;;;;;;5064006;28;1249;-68
2021/01/18 10:54:05;;;;;;;;;;;21.00;52.10;;;;;;5071909;28;1306;-68
2021/01/18 10:56:33;;;;;;;;;;;21.00;52.10;;;;;;5073452;28;1346;-68
2021/01/18 10:58:59;;;;;;;;;;;21.00;52.00;;;;;;5066983;28;1310;-68
2021/01/18 11:01:25;;;;;;;;;;;21.00;52.00;;;;;;5055221;28;1033;-67
2021/01/18 11:03:50;;;;;;;;;;;21.00;52.00;;;;;;5052909;28;1889;-67
2021/01/18 11:06:17;;;;;;;;;;;21.00;52.10;;;;;;5051882;28;1315;-67
2021/01/18 11:08:42;;;;;;;;;;;21.00;52.10;;;;;;5053027;28;1335;-68
2021/01/18 11:11:34;;;;;;;;;;;21.00;52.00;;;;;;5051836;28;1396;-68
2021/01/18 11:14:03;;;;;;;;;;;21.00;52.10;;;;;;5056154;28;1427;-68
2021/01/18 11:16:29;;;;;;;;;;;20.90;49.70;;;;;;5068442;28;1371;-68
2021/01/18 11:19:04;;;;;;;;;;;20.90;49.50;;;;;;5073255;28;1348;-67
2021/01/18 11:21:30;;;;;;;;;;;20.90;49.60;;;;;;5073212;28;1344;-68
2021/01/18 11:23:55;;;;;;;;;;;21.00;49.90;;;;;;5054830;28;1953;-67
2021/01/18 11:26:21;;;;;;;;;;;21.10;49.90;;;;;;5072767;28;1110;-68
2021/01/18 11:28:46;;;;;;;;;;;21.10;49.90;;;;;;5071695;28;1573;-67
2021/01/18 11:31:13;;;;;;;;;;;21.20;50.00;;;;;;5073047;28;1307;-67
2021/01/18 11:33:38;;;;;;;;;;;21.30;50.00;;;;;;5063099;28;863;-67
2021/01/18 11:36:04;;;;;;;;;;;21.30;49.90;;;;;;5052758;28;1264;-67
2021/01/18 11:38:29;;;;;;;;;;;21.30;49.80;;;;;;5061169;28;1982;-67
2021/01/18 11:40:55;;;;;;;;;;;21.40;49.80;;;;;;5067862;28;2280;-67
2021/01/18 11:43:20;;;;;;;;;;;21.40;49.80;;;;;;5065889;28;1805;-68
2021/01/18 11:45:46;;;;;;;;;;;21.50;49.80;;;;;;5068569;28;1909;-69
2021/01/18 11:48:11;;;;;;;;;;;21.50;49.70;;;;;;5052590;28;1267;-69
2021/01/18 11:50:37;;;;;;;;;;;21.50;49.60;;;;;;5055246;28;1348;-68
2021/01/18 11:53:03;;;;;;;;;;;21.60;49.70;;;;;;5072279;28;1265;-69
2021/01/18 11:55:28;;;;;;;;;;;21.60;49.60;;;;;;5073116;28;1308;-68
2021/01/18 11:57:54;;;;;;;;;;;21.60;49.50;;;;;;5071746;28;1237;-69
2021/01/18 12:00:20;;;;;;;;;;;21.70;49.50;;;;;;5058045;28;1300;-67
2021/01/18 12:02:46;;;;;;;;;;;21.70;49.60;;;;;;5052732;28;1316;-67
2021/01/18 12:05:11;;;;;;;;;;;21.70;49.60;;;;;;5052381;28;1902;-69
2021/01/18 12:07:37;;;;;;;;;;;21.70;49.50;;;;;;5051151;28;1313;-70
2021/01/18 12:10:03;;;;;;;;;;;21.70;49.50;;;;;;5058686;28;1383;-70
2021/01/18 12:12:28;;;;;;;;;;;21.70;49.50;;;;;;5061942;28;1285;-68
2021/01/18 12:14:54;;;;;;;;;;;21.70;49.50;;;;;;5056188;28;1182;-68
2021/01/18 12:17:19;;;;;;;;;;;21.70;49.60;;;;;;5052292;28;1273;-68
2021/01/18 12:19:45;;;;;;;;;;;21.70;49.60;;;;;;5054135;28;1423;-68
2021/01/18 12:22:11;;;;;;;;;;;21.70;49.60;;;;;;5055915;28;1316;-68
2021/01/18 12:24:36;;;;;;;;;;;21.70;49.70;;;;;;5055929;28;1914;-69
2021/01/18 12:27:02;;;;;;;;;;;21.70;49.70;;;;;;5056267;28;1360;-70
2021/01/18 12:29:27;;;;;;;;;;;21.70;49.70;;;;;;5055954;28;1395;-70
2021/01/18 12:31:53;;;;;;;;;;;21.70;49.80;;;;;;5056162;28;1307;-70
2021/01/18 12:34:18;;;;;;;;;;;21.60;49.80;;;;;;5054710;28;1238;-69
2021/01/18 12:36:45;;;;;;;;;;;21.60;49.90;;;;;;5055292;28;1312;-68
2021/01/18 12:39:11;;;;;;;;;;;21.60;49.90;;;;;;5054533;28;1537;-68
2021/01/18 12:41:37;;;;;;;;;;;21.60;49.90;;;;;;5060418;28;1307;-69
2021/01/18 12:44:03;;;;;;;;;;;21.60;50.00;;;;;;5060972;28;1913;-67
2021/01/18 12:46:28;;;;;;;;;;;21.50;50.00;;;;;;5075826;28;1323;-67
2021/01/18 12:48:54;;;;;;;;;;;21.50;50.10;;;;;;5075491;28;1288;-67
2021/01/18 12:51:19;;;;;;;;;;;21.50;50.10;;;;;;5075400;28;1316;-67
2021/01/18 12:53:45;;;;;;;;;;;21.50;50.20;;;;;;5073092;28;1395;-68
2021/01/18 12:56:11;;;;;;;;;;;21.50;50.30;;;;;;5055470;28;1344;-68
2021/01/18 12:58:37;;;;;;;;;;;21.40;50.30;;;;;;5067471;28;1855;-68
2021/01/18 13:01:02;;;;;;;;;;;21.40;50.40;;;;;;5065742;28;1181;-68
2021/01/18 13:03:28;;;;;;;;;;;21.40;50.50;;;;;;5074056;28;1421;-68
2021/01/18 13:05:53;;;;;;;;;;;21.40;50.60;;;;;;5075158;28;1894;-68
2021/01/18 13:08:19;;;;;;;;;;;21.30;51.30;;;;;;5060857;28;1385;-68
2021/01/18 13:10:44;;;;;;;;;;;21.30;50.70;;;;;;5055240;28;1201;-68
2021/01/18 13:13:10;;;;;;;;;;;21.30;50.70;;;;;;5059848;28;1138;-67
2021/01/18 13:15:35;;;;;;;;;;;21.30;50.70;;;;;;5055430;28;1293;-67
2021/01/18 13:18:01;;;;;;;;;;;21.20;50.70;;;;;;5057315;28;1386;-67
2021/01/18 13:20:26;;;;;;;;;;;21.20;50.80;;;;;;5054945;28;1430;-68
2021/01/18 13:22:52;;;;;;;;;;;21.20;50.90;;;;;;5055235;28;1355;-67
2021/01/18 13:25:18;;;;;;;;;;;21.20;51.00;;;;;;5054676;28;1890;-67
2021/01/18 13:27:44;;;;;;;;;;;21.20;51.10;;;;;;5054027;28;1350;-68
2021/01/18 13:30:10;;;;;;;;;;;21.10;51.20;;;;;;5092042;22;1926;-68
2021/01/18 13:32:35;;;;;;;;;;;21.10;51.20;;;;;;5101564;28;920;-68
2021/01/18 13:35:01;;;;;;;;;;;21.10;51.20;;;;;;5093649;28;1280;-68
2021/01/18 13:37:26;;;;;;;;;;;21.10;51.20;;;;;;5094927;28;1272;-68
2021/01/18 13:39:51;;;;;;;;;;;21.00;51.20;;;;;;5095197;28;1385;-68
2021/01/18 13:42:17;;;;;;;;;;;21.00;51.30;;;;;;5095063;28;1204;-68
2021/01/18 13:44:42;;;;;;;;;;;21.00;51.30;;;;;;5094856;28;1959;-68
2021/01/18 13:47:08;;;;;;;;;;;21.00;51.30;;;;;;5094731;28;1330;-68
2021/01/18 13:49:33;;;;;;;;;;;21.00;51.30;;;;;;5094803;28;1366;-68
2021/01/18 13:51:59;;;;;;;;;;;20.90;51.30;;;;;;5095345;28;1367;-67
2021/01/18 13:54:24;;;;;;;;;;;20.90;51.30;;;;;;5114017;28;1050;-68
2021/01/18 13:56:50;;;;;;;;;;;20.90;51.40;;;;;;5114575;28;1328;-68
2021/01/18 13:59:15;;;;;;;;;;;20.90;51.40;;;;;;5094726;28;1269;-68
2021/01/18 14:01:41;;;;;;;;;;;20.90;51.40;;;;;;5094766;28;1273;-68
2021/01/18 14:04:06;;;;;;;;;;;20.90;51.50;;;;;;5094165;28;1968;-68
2021/01/18 14:06:35;;;;;;;;;;;20.80;51.50;;;;;;5093208;28;1293;-67
2021/01/18 14:09:04;;;;;;;;;;;20.80;51.50;;;;;;5094343;28;1380;-67
2021/01/18 14:11:33;;;;;;;;;;;20.80;51.50;;;;;;5094666;28;1328;-68
2021/01/18 14:13:59;;;;;;;;;;;20.80;51.60;;;;;;5094334;28;1113;-66
2021/01/18 14:16:24;;;;;;;;;;;20.80;51.60;;;;;;5096356;28;1354;-66
2021/01/18 14:18:50;;;;;;;;;;;20.80;51.70;;;;;;5102499;28;1207;-65
2021/01/18 14:21:15;;;;;;;;;;;20.70;51.90;;;;;;5095442;28;1266;-66
2021/01/18 14:23:41;;;;;;;;;;;20.70;52.00;;;;;;5112453;28;1964;-66
2021/01/18 14:26:06;;;;;;;;;;;20.70;52.00;;;;;;5114121;28;1335;-67
2021/01/18 14:28:32;;;;;;;;;;;20.70;52.00;;;;;;5112769;28;1422;-66
2021/01/18 14:30:57;;;;;;;;;;;20.60;51.90;;;;;;5114345;28;1293;-67
2021/01/18 14:33:23;;;;;;;;;;;20.60;52.00;;;;;;5114201;28;1367;-66
2021/01/18 14:35:48;;;;;;;;;;;20.60;52.00;;;;;;5114100;28;1121;-66